Time;durP1;ratioP1;P1;durP2;ratioP2;P2;SDS_P1;SDS_P2;PMS_P1;PMS_P2;Temp;Humidity;BMP_temperature;BMP_pressure;BME280_temperature;BME280_humidity;BME280_pressure;Samples;Min_cycle;Max_cycle;Signal;HPM_P1;HPM_P2
2022/06/01 00:01:45;;;;;;;22.77;21.87;;;15.00;42.60;;;;;;4972782;28;20796;-79
2022/06/01 00:04:11;;;;;;;23.67;22.47;;;14.90;42.60;;;;;;4973139;28;20418;-79
2022/06/01 00:06:37;;;;;;;23.23;22.23;;;15.00;43.00;;;;;;4971658;28;20813;-79
2022/06/01 00:09:04;;;;;;;24.00;23.00;;;15.00;42.70;;;;;;4972191;28;20418;-79
2022/06/01 00:11:30;;;;;;;23.97;22.73;;;14.90;43.40;;;;;;4969438;28;20194;-79
2022/06/01 00:13:56;;;;;;;24.50;23.30;;;14.90;43.30;;;;;;4970575;28;20525;-80
2022/06/01 00:16:23;;;;;;;23.60;22.60;;;14.90;43.40;;;;;;4967466;28;20509;-79
2022/06/01 00:18:48;;;;;;;23.80;22.80;;;14.80;43.70;;;;;;4968521;28;21310;-80
2022/06/01 00:21:14;;;;;;;23.60;22.60;;;14.80;42.90;;;;;;4971927;28;20505;-79
2022/06/01 00:23:40;;;;;;;22.87;21.90;;;14.80;42.70;;;;;;4970617;28;20446;-81
2022/06/01 00:26:06;;;;;;;23.40;22.40;;;14.80;42.70;;;;;;4967775;28;20178;-80
2022/06/01 00:28:32;;;;;;;23.33;22.33;;;14.80;42.80;;;;;;4968109;28;20553;-79
2022/06/01 00:30:58;;;;;;;23.40;22.50;;;14.80;42.80;;;;;;4970098;28;20187;-80
2022/06/01 00:33:23;;;;;;;23.50;22.60;;;14.80;43.50;;;;;;4969029;28;20414;-79
2022/06/01 00:35:49;;;;;;;25.67;24.30;;;14.70;44.00;;;;;;4967646;28;20179;-80
2022/06/01 00:38:16;;;;;;;23.23;22.13;;;14.60;44.10;;;;;;4969578;28;20546;-80
2022/06/01 00:40:43;;;;;;;24.20;23.10;;;14.70;44.70;;;;;;4969475;28;20429;-80
2022/06/01 00:43:25;;;;;;;24.20;23.10;;;14.60;44.30;;;;;;4967944;28;20418;-80
2022/06/01 00:45:51;;;;;;;23.07;22.17;;;14.70;44.70;;;;;;4967287;28;20961;-79
2022/06/01 00:48:21;;;;;;;22.93;22.00;;;14.70;44.40;;;;;;4967598;28;20461;-80
2022/06/01 00:50:47;;;;;;;24.43;23.40;;;14.60;44.00;;;;;;4968032;28;20866;-79
2022/06/01 00:53:27;;;;;;;24.07;22.77;;;14.60;44.10;;;;;;4968573;28;20450;-79
2022/06/01 00:55:58;;;;;;;22.87;21.87;;;14.60;44.00;;;;;;4968286;28;20181;-80
2022/06/01 00:58:30;;;;;;;23.73;22.83;;;14.50;43.20;;;;;;4968225;28;20458;-79
2022/06/01 01:00:58;;;;;;;24.07;22.77;;;14.50;42.90;;;;;;4967779;28;20406;-79
2022/06/01 01:03:26;;;;;;;25.07;23.80;;;14.50;42.20;;;;;;4967285;28;20914;-79
2022/06/01 01:06:03;;;;;;;23.67;22.70;;;14.50;42.20;;;;;;4968887;28;20472;-79
2022/06/01 01:08:28;;;;;;;23.70;22.60;;;14.50;43.60;;;;;;4965956;28;20556;-79
2022/06/01 01:10:54;;;;;;;23.80;22.80;;;14.40;44.50;;;;;;4968203;28;20525;-80
2022/06/01 01:13:20;;;;;;;23.03;22.13;;;14.40;44.90;;;;;;4966240;28;20260;-79
2022/06/01 01:15:58;;;;;;;23.77;22.80;;;14.40;45.00;;;;;;4966086;28;20229;-79
2022/06/01 01:18:35;;;;;;;22.87;21.97;;;14.40;45.50;;;;;;4967478;28;20698;-79
2022/06/01 01:21:10;;;;;;;23.90;23.00;;;14.30;44.90;;;;;;4967710;28;20489;-79
2022/06/01 01:24:17;;;;;;;24.97;23.87;;;14.30;44.60;;;;;;4969560;28;20398;-79
2022/06/01 01:26:48;;;;;;;24.27;23.20;;;14.30;44.90;;;;;;4969026;28;20441;-79
2022/06/01 01:29:15;;;;;;;23.17;22.07;;;14.40;44.40;;;;;;4968556;28;20481;-79
2022/06/01 01:31:43;;;;;;;25.27;23.97;;;14.40;43.80;;;;;;4969091;28;20509;-79
2022/06/01 01:34:09;;;;;;;23.00;22.10;;;14.40;44.00;;;;;;4967875;28;20425;-79
2022/06/01 01:36:41;;;;;;;23.90;22.90;;;14.40;43.30;;;;;;4966734;28;20414;-79
2022/06/01 01:39:10;;;;;;;23.17;22.27;;;14.40;43.70;;;;;;4967055;28;20465;-80
2022/06/01 01:41:48;;;;;;;23.10;22.20;;;14.40;43.20;;;;;;4967230;28;20453;-80
2022/06/01 01:44:28;;;;;;;23.37;22.47;;;14.40;43.80;;;;;;4968035;28;20417;-79
2022/06/01 01:46:56;;;;;;;24.40;23.40;;;14.30;42.90;;;;;;4964980;28;20457;-79
2022/06/01 01:49:31;;;;;;;23.17;22.27;;;14.40;41.90;;;;;;4967550;28;20426;-79
2022/06/01 01:52:00;;;;;;;24.10;23.00;;;14.40;41.90;;;;;;4967568;28;20492;-79
2022/06/01 01:54:32;;;;;;;23.47;22.53;;;14.30;42.20;;;;;;4967344;28;20413;-78
2022/06/01 01:57:22;;;;;;;22.93;22.03;;;14.30;42.20;;;;;;4966603;28;20783;-78
2022/06/01 01:59:53;;;;;;;22.60;21.70;;;14.30;41.80;;;;;;4968930;28;20465;-80
2022/06/01 02:02:32;;;;;;;23.90;22.90;;;14.20;42.30;;;;;;4968197;28;20828;-79
2022/06/01 02:08:30;;;;;;;24.60;23.60;;;14.20;41.70;;;;;;4966557;28;20952;-78
2022/06/01 02:14:03;;;;;;;23.80;22.80;;;14.10;42.50;;;;;;4968393;28;20822;-78
2022/06/01 02:16:34;;;;;;;24.77;23.77;;;14.20;41.70;;;;;;4965757;28;20477;-79
2022/06/01 02:19:04;;;;;;;24.33;23.33;;;14.30;41.10;;;;;;4969723;28;20532;-79
2022/06/01 02:21:30;;;;;;;25.00;24.00;;;14.30;41.80;;;;;;4972711;28;20824;-79
2022/06/01 02:23:59;;;;;;;24.50;23.50;;;14.30;41.70;;;;;;4964846;28;20449;-79
2022/06/01 02:26:26;;;;;;;23.63;22.73;;;14.20;41.70;;;;;;4965075;28;20422;-80
2022/06/01 02:29:06;;;;;;;24.83;23.80;;;14.20;41.70;;;;;;4964309;28;20433;-80
2022/06/01 02:31:34;;;;;;;25.40;23.57;;;14.20;42.80;;;;;;4966660;28;20418;-79
2022/06/01 02:34:01;;;;;;;25.20;24.10;;;14.10;43.00;;;;;;4966456;28;20426;-79
2022/06/01 02:36:27;;;;;;;24.47;23.37;;;14.10;42.80;;;;;;4967630;28;20476;-79
2022/06/01 02:38:54;;;;;;;25.30;24.20;;;14.10;42.60;;;;;;4967447;28;20476;-78
2022/06/01 02:44:05;;;;;;;24.50;23.40;;;14.00;42.70;;;;;;4967093;28;20497;-80
2022/06/01 02:46:31;;;;;;;24.37;23.30;;;14.00;43.10;;;;;;4965771;28;20525;-79
2022/06/01 02:48:57;;;;;;;24.70;23.60;;;14.00;43.70;;;;;;4966149;28;20201;-80
2022/06/01 02:51:24;;;;;;;25.80;24.60;;;13.90;42.70;;;;;;4966349;28;20484;-77
2022/06/01 02:53:49;;;;;;;25.73;24.63;;;13.90;42.70;;;;;;4966480;28;20449;-79
2022/06/01 02:56:16;;;;;;;25.33;24.13;;;13.90;43.20;;;;;;4966548;28;20422;-79
2022/06/01 02:58:41;;;;;;;26.13;24.93;;;13.90;43.10;;;;;;4966555;28;20210;-79
2022/06/01 03:01:08;;;;;;;25.20;24.10;;;13.80;42.80;;;;;;4967004;28;20890;-80
2022/06/01 03:03:35;;;;;;;24.73;23.73;;;13.80;43.10;;;;;;4965924;28;20261;-80
2022/06/01 03:06:00;;;;;;;26.60;25.50;;;13.80;43.90;;;;;;4965824;28;20926;-78
2022/06/01 03:08:26;;;;;;;26.13;25.00;;;13.80;43.50;;;;;;4967626;28;20425;-79
2022/06/01 03:10:52;;;;;;;27.47;26.27;;;13.80;43.30;;;;;;4967458;28;20246;-78
2022/06/01 03:13:20;;;;;;;26.87;25.70;;;13.80;43.50;;;;;;4967172;28;20214;-80
2022/06/01 03:15:46;;;;;;;26.17;24.70;;;13.80;43.80;;;;;;4967927;28;20418;-80
2022/06/01 03:18:11;;;;;;;27.07;25.97;;;13.70;43.50;;;;;;4967066;28;20426;-79
2022/06/01 03:20:38;;;;;;;26.17;25.13;;;13.70;43.90;;;;;;4965082;28;20229;-79
2022/06/01 03:23:04;;;;;;;28.23;26.90;;;13.80;43.30;;;;;;4966260;28;20183;-80
2022/06/01 03:25:30;;;;;;;26.80;25.60;;;13.70;43.70;;;;;;4966744;28;20791;-79
2022/06/01 03:27:59;;;;;;;25.63;24.53;;;13.60;44.20;;;;;;4968179;28;20465;-79
2022/06/01 03:30:25;;;;;;;28.63;26.73;;;13.60;44.80;;;;;;4966251;28;20211;-79
2022/06/01 03:32:52;;;;;;;26.73;25.37;;;13.50;44.70;;;;;;4967713;28;20456;-79
2022/06/01 03:35:21;;;;;;;27.60;26.50;;;13.50;45.50;;;;;;4968253;28;20421;-80
2022/06/01 03:37:48;;;;;;;26.50;25.40;;;13.60;44.80;;;;;;4967284;28;20414;-79
2022/06/01 03:40:16;;;;;;;28.50;27.13;;;13.60;44.80;;;;;;4965767;28;20989;-79
2022/06/01 03:42:42;;;;;;;26.37;24.97;;;13.60;44.80;;;;;;4968055;28;20505;-79
2022/06/01 03:47:53;;;;;;;27.27;26.17;;;13.60;45.40;;;;;;4974226;28;20445;-79
2022/06/01 03:50:19;;;;;;;26.37;25.07;;;13.60;45.40;;;;;;4973681;28;20425;-80
2022/06/01 03:52:48;;;;;;;27.13;26.03;;;13.60;45.40;;;;;;4972290;28;20489;-79
2022/06/01 03:55:14;;;;;;;26.93;25.73;;;13.50;45.60;;;;;;4981115;23;20840;-82
2022/06/01 03:57:41;;;;;;;31.50;29.10;;;13.50;45.90;;;;;;4973217;28;20445;-82
2022/06/01 04:00:12;;;;;;;28.27;26.93;;;13.50;46.00;;;;;;4968473;28;20457;-79
2022/06/01 04:02:39;;;;;;;30.87;29.37;;;13.40;46.20;;;;;;4971999;28;20422;-83
2022/06/01 04:05:05;;;;;;;29.67;27.93;;;13.40;46.30;;;;;;4969688;28;20417;-83
2022/06/01 04:07:33;;;;;;;30.80;29.37;;;13.40;46.10;;;;;;4970138;28;20405;-83
2022/06/01 04:09:58;;;;;;;27.73;26.53;;;13.50;45.90;;;;;;4968219;28;20422;-84
2022/06/01 04:12:24;;;;;;;28.37;27.03;;;13.50;46.40;;;;;;4968350;28;20433;-83
2022/06/01 04:14:50;;;;;;;28.30;27.10;;;13.50;46.20;;;;;;4968923;28;20651;-82
2022/06/01 04:17:15;;;;;;;28.37;27.07;;;13.50;45.90;;;;;;4969470;28;20182;-81
2022/06/01 04:19:41;;;;;;;28.20;26.87;;;13.50;46.50;;;;;;4970387;28;20202;-83
2022/06/01 04:22:08;;;;;;;28.30;27.00;;;13.50;46.80;;;;;;4969716;28;20873;-84
2022/06/01 04:24:35;;;;;;;28.50;27.20;;;13.60;47.10;;;;;;4970153;28;20638;-83
2022/06/01 04:27:01;;;;;;;27.90;26.70;;;13.60;47.10;;;;;;4970101;28;20468;-83
2022/06/01 04:29:27;;;;;;;26.47;25.37;;;13.60;46.50;;;;;;4969668;28;20422;-82
2022/06/01 04:32:03;;;;;;;28.97;27.67;;;13.60;46.30;;;;;;4969650;28;20421;-83
2022/06/01 04:34:29;;;;;;;28.47;27.07;;;13.60;46.50;;;;;;4970384;28;20178;-83
2022/06/01 04:36:55;;;;;;;26.90;25.77;;;13.70;46.70;;;;;;4968672;28;20505;-83
2022/06/01 04:39:22;;;;;;;28.07;26.67;;;13.70;47.00;;;;;;4970472;28;21189;-84
2022/06/01 04:41:48;;;;;;;28.20;26.90;;;13.70;46.90;;;;;;4970290;28;20479;-84
2022/06/01 04:44:14;;;;;;;27.43;26.23;;;13.80;46.80;;;;;;4968328;28;20469;-79
2022/06/01 04:46:39;;;;;;;28.40;27.00;;;13.80;46.60;;;;;;4967675;28;20839;-81
2022/06/01 04:49:07;;;;;;;27.07;25.83;;;13.90;46.40;;;;;;4967341;28;20447;-80
2022/06/01 04:51:36;;;;;;;29.33;27.92;;;14.00;47.10;;;;;;4963959;28;21250;-79
2022/06/01 04:54:03;;;;;;;28.10;26.70;;;14.00;46.80;;;;;;4966828;28;20179;-80
2022/06/01 04:56:29;;;;;;;26.60;25.40;;;14.00;45.60;;;;;;4969022;28;20496;-80
2022/06/01 04:58:55;;;;;;;26.40;25.00;;;14.10;45.50;;;;;;5000524;28;20988;-81
2022/06/01 05:01:21;;;;;;;25.50;24.30;;;14.10;46.20;;;;;;5000817;28;20201;-79
2022/06/01 05:03:46;;;;;;;27.57;26.27;;;14.10;46.70;;;;;;5002556;28;20798;-79
2022/06/01 05:06:12;;;;;;;26.70;25.50;;;14.10;47.50;;;;;;5000592;28;20586;-80
2022/06/01 05:08:38;;;;;;;26.10;24.90;;;14.20;47.00;;;;;;4986997;28;20182;-80
2022/06/01 05:11:04;;;;;;;26.47;25.37;;;14.20;46.50;;;;;;5003291;28;20524;-81
2022/06/01 05:13:30;;;;;;;27.93;26.63;;;14.30;46.50;;;;;;5001944;28;20429;-80
2022/06/01 05:15:58;;;;;;;26.30;25.20;;;14.30;45.90;;;;;;5005040;28;20516;-79
2022/06/01 05:18:25;;;;;;;26.83;25.53;;;14.40;46.50;;;;;;5002192;28;20221;-79
2022/06/01 05:20:53;;;;;;;27.53;26.33;;;14.40;47.00;;;;;;5004917;28;20422;-84
2022/06/01 05:23:19;;;;;;;27.93;26.70;;;14.60;45.70;;;;;;5005488;28;20413;-84
2022/06/01 05:25:47;;;;;;;28.57;27.37;;;14.70;45.20;;;;;;5004342;28;20456;-84
2022/06/01 05:28:15;;;;;;;25.47;24.37;;;14.70;45.70;;;;;;5005548;28;20417;-83
2022/06/01 05:30:41;;;;;;;27.27;26.07;;;14.70;45.70;;;;;;4990068;28;20436;-83
2022/06/01 05:33:07;;;;;;;27.10;25.90;;;14.70;46.60;;;;;;5004266;28;20421;-83
2022/06/01 05:35:33;;;;;;;27.07;25.77;;;14.80;46.10;;;;;;4988208;28;20277;-85
2022/06/01 05:37:59;;;;;;;26.23;25.13;;;14.90;46.90;;;;;;5004405;28;20428;-83
2022/06/01 05:40:25;;;;;;;27.40;26.10;;;14.90;47.10;;;;;;5003723;28;20210;-83
2022/06/01 05:42:51;;;;;;;25.90;24.80;;;15.00;46.00;;;;;;5005159;28;20445;-84
2022/06/01 05:45:17;;;;;;;25.87;24.63;;;15.00;46.30;;;;;;5005008;28;20511;-84
2022/06/01 05:47:43;;;;;;;26.50;25.20;;;15.20;46.50;;;;;;5004293;28;20676;-84
2022/06/01 05:50:09;;;;;;;25.73;24.60;;;15.20;46.30;;;;;;5005701;28;20209;-82
2022/06/01 05:52:38;;;;;;;24.87;23.87;;;15.30;46.30;;;;;;5004487;28;20178;-83
2022/06/01 05:55:09;;;;;;;25.80;24.50;;;15.40;46.70;;;;;;5003731;28;20440;-82
2022/06/01 05:57:34;;;;;;;26.23;24.93;;;15.50;46.40;;;;;;4989705;28;20429;-83
2022/06/01 06:00:02;;;;;;;28.40;26.43;;;15.50;46.50;;;;;;5003478;28;20472;-84
2022/06/01 06:02:27;;;;;;;25.73;24.53;;;15.60;45.70;;;;;;5005270;28;20214;-83
2022/06/01 06:04:53;;;;;;;25.90;24.43;;;15.70;45.20;;;;;;5005381;28;20926;-83
2022/06/01 06:07:19;;;;;;;25.07;23.30;;;15.90;44.20;;;;;;5004127;28;20178;-84
2022/06/01 06:09:44;;;;;;;26.00;24.87;;;16.00;43.50;;;;;;5003772;28;20209;-83
2022/06/01 06:12:10;;;;;;;26.20;25.10;;;16.00;44.10;;;;;;5002883;28;20224;-83
2022/06/01 06:14:35;;;;;;;23.37;22.30;;;16.10;44.20;;;;;;4990715;28;20182;-83
2022/06/01 06:17:01;;;;;;;25.40;24.10;;;16.20;43.70;;;;;;5004572;28;20185;-83
2022/06/01 06:19:27;;;;;;;26.57;25.47;;;16.30;43.40;;;;;;5003568;28;20212;-83
2022/06/01 06:21:52;;;;;;;27.00;25.70;;;16.40;41.40;;;;;;5003965;28;20174;-82
2022/06/01 06:24:22;;;;;;;27.63;26.47;;;16.40;41.90;;;;;;5001867;28;20412;-83
2022/06/01 06:26:48;;;;;;;27.00;25.80;;;16.50;41.30;;;;;;5002475;28;20182;-83
2022/06/01 06:29:17;;;;;;;25.60;24.40;;;16.60;42.40;;;;;;4987801;28;20421;-82
2022/06/01 06:31:43;;;;;;;26.37;25.23;;;16.60;41.70;;;;;;5002203;28;20452;-84
2022/06/01 06:34:09;;;;;;;27.63;25.83;;;16.60;42.00;;;;;;5002065;28;20504;-83
2022/06/01 06:36:35;;;;;;;25.37;24.00;;;16.70;41.80;;;;;;4987135;28;20855;-83
2022/06/01 06:39:01;;;;;;;25.43;24.23;;;16.80;42.00;;;;;;5001844;28;20732;-83
2022/06/01 06:41:26;;;;;;;23.20;22.20;;;16.80;42.00;;;;;;5001967;28;20684;-82
2022/06/01 06:43:52;;;;;;;23.30;22.20;;;16.80;42.20;;;;;;5001646;28;20422;-84
2022/06/01 06:46:20;;;;;;;25.57;24.37;;;16.90;41.70;;;;;;5002485;28;20182;-83
2022/06/01 06:48:50;;;;;;;24.23;22.97;;;16.90;41.50;;;;;;5001751;28;20429;-82
2022/06/01 06:51:18;;;;;;;26.03;24.70;;;17.00;41.80;;;;;;5001484;28;20474;-80
2022/06/01 06:53:44;;;;;;;25.80;24.60;;;17.10;41.20;;;;;;5001846;28;20425;-80
2022/06/01 06:56:12;;;;;;;26.20;25.00;;;17.10;40.70;;;;;;5001103;28;20804;-80
2022/06/01 06:58:37;;;;;;;26.03;24.93;;;17.20;40.20;;;;;;5002299;28;20594;-85
2022/06/01 07:01:04;;;;;;;25.80;24.70;;;17.30;38.70;;;;;;5002988;28;20988;-83
2022/06/01 07:03:30;;;;;;;26.17;24.90;;;17.40;38.90;;;;;;5003095;28;20630;-82
2022/06/01 07:06:17;;;;;;;26.00;24.90;;;17.40;38.70;;;;;;4989200;28;20421;-85
2022/06/01 07:08:52;;;;;;;26.33;25.13;;;17.50;38.70;;;;;;5004178;28;21186;-83
2022/06/01 07:11:19;;;;;;;25.57;24.47;;;17.50;38.10;;;;;;5003321;28;20427;-83
2022/06/01 07:13:47;;;;;;;25.53;24.43;;;17.60;38.20;;;;;;4990982;28;20413;-84
2022/06/01 07:16:16;;;;;;;26.50;25.37;;;17.70;36.40;;;;;;4971252;28;20430;-84
2022/06/01 07:18:45;;;;;;;25.10;24.10;;;17.80;36.20;;;;;;4974538;28;20458;-84
2022/06/01 07:21:11;;;;;;;25.70;24.60;;;17.90;35.70;;;;;;4975385;28;20559;-83
2022/06/01 07:23:38;;;;;;;26.60;25.40;;;17.90;35.70;;;;;;4975714;28;20974;-83
2022/06/01 07:26:07;;;;;;;25.90;24.80;;;17.90;35.40;;;;;;4975439;28;20261;-82
2022/06/01 07:28:32;;;;;;;25.13;23.93;;;18.00;35.40;;;;;;4975848;28;20464;-83
2022/06/01 07:30:58;;;;;;;26.00;24.70;;;18.10;34.80;;;;;;4975849;28;20817;-82
2022/06/01 07:33:29;;;;;;;25.73;24.73;;;18.10;33.20;;;;;;4976146;28;20178;-83
2022/06/01 07:35:56;;;;;;;24.87;23.90;;;18.20;33.30;;;;;;4975883;28;20217;-84
2022/06/01 07:43:54;;;;;;;25.53;24.43;;;18.40;31.20;;;;;;4976986;28;20417;-84
2022/06/01 07:46:20;;;;;;;25.10;24.00;;;18.40;32.10;;;;;;4975224;28;20418;-83
2022/06/01 07:48:46;;;;;;;25.90;24.77;;;18.60;31.80;;;;;;4975709;28;20178;-84
2022/06/01 07:51:13;;;;;;;26.73;25.20;;;18.60;32.30;;;;;;4975112;28;20202;-83
2022/06/01 07:53:39;;;;;;;25.13;24.00;;;18.60;33.10;;;;;;4975113;28;20426;-83
2022/06/01 07:56:05;;;;;;;23.83;22.83;;;18.70;30.10;;;;;;4975103;28;20779;-83
2022/06/01 07:58:31;;;;;;;24.70;23.70;;;18.70;29.10;;;;;;4976815;28;20410;-82
2022/06/01 08:00:56;;;;;;;25.07;23.87;;;18.70;29.10;;;;;;4975059;28;20183;-83
2022/06/01 08:03:22;;;;;;;26.17;25.07;;;18.80;29.10;;;;;;4975033;28;20631;-82
2022/06/01 08:05:48;;;;;;;24.80;23.80;;;18.80;27.80;;;;;;4974738;28;20182;-82
2022/06/01 08:08:14;;;;;;;24.53;23.43;;;18.80;28.60;;;;;;4975094;28;20179;-83
2022/06/01 08:10:39;;;;;;;23.77;22.77;;;18.90;27.80;;;;;;4975024;28;20179;-83
2022/06/01 08:13:09;;;;;;;24.20;22.90;;;18.90;27.60;;;;;;4976289;28;20186;-82
2022/06/01 08:15:45;;;;;;;24.13;23.13;;;19.00;27.90;;;;;;4974699;28;20198;-83
2022/06/01 08:18:14;;;;;;;22.97;21.80;;;19.00;28.60;;;;;;4974838;28;20425;-82
2022/06/01 08:20:40;;;;;;;23.50;22.40;;;19.10;25.80;;;;;;4974997;28;20442;-83
2022/06/01 08:23:06;;;;;;;24.23;23.03;;;19.10;26.00;;;;;;4974871;28;20509;-82
2022/06/01 08:25:33;;;;;;;23.80;22.90;;;19.10;24.70;;;;;;4975367;28;20633;-82
2022/06/01 08:27:59;;;;;;;24.90;23.90;;;19.30;22.70;;;;;;4975961;28;20517;-83
2022/06/01 08:30:27;;;;;;;23.13;22.13;;;19.40;22.60;;;;;;4974851;28;20425;-84
2022/06/01 08:32:54;;;;;;;23.87;22.87;;;19.40;22.90;;;;;;4975694;28;20433;-80
2022/06/01 08:35:27;;;;;;;24.60;23.60;;;19.40;23.20;;;;;;4974655;28;20438;-79
2022/06/01 08:37:53;;;;;;;24.60;23.60;;;19.40;23.70;;;;;;4974601;28;20449;-79
2022/06/01 08:40:23;;;;;;;24.87;23.67;;;19.60;22.30;;;;;;4974433;28;20462;-80
2022/06/01 08:42:57;;;;;;;24.20;23.20;;;19.70;23.20;;;;;;4974080;28;20206;-79
2022/06/01 08:45:24;;;;;;;23.30;22.33;;;19.90;23.30;;;;;;4973858;28;20487;-79
2022/06/01 08:47:50;;;;;;;23.30;22.27;;;19.90;23.40;;;;;;4974073;28;20425;-79
2022/06/01 08:50:36;;;;;;;23.17;22.27;;;20.00;23.90;;;;;;4974056;28;20803;-79
2022/06/01 08:53:05;;;;;;;24.10;23.07;;;20.00;24.20;;;;;;4954521;28;20183;-80
2022/06/01 08:55:48;;;;;;;22.73;21.83;;;20.10;23.60;;;;;;4954111;28;20994;-80
2022/06/01 08:58:23;;;;;;;22.10;21.10;;;20.30;22.80;;;;;;4954481;28;20419;-79
2022/06/01 09:00:58;;;;;;;23.77;22.67;;;20.30;23.10;;;;;;4954629;29;20828;-79
2022/06/01 09:03:33;;;;;;;23.80;22.90;;;20.40;22.50;;;;;;4954378;28;20415;-80
2022/06/01 09:06:33;;;;;;;24.60;23.33;;;20.40;24.60;;;;;;4954209;28;20427;-79
2022/06/01 09:09:30;;;;;;;23.30;22.40;;;20.20;25.60;;;;;;4948175;28;20801;-79
2022/06/01 09:11:56;;;;;;;25.33;23.63;;;20.20;25.90;;;;;;4969523;28;20422;-78
2022/06/01 09:14:36;;;;;;;23.33;22.33;;;20.00;25.70;;;;;;4973369;28;20450;-79
2022/06/01 09:17:02;;;;;;;23.00;21.67;;;19.90;26.30;;;;;;4973344;28;20417;-79
2022/06/01 09:22:37;;;;;;;23.63;22.43;;;19.80;26.50;;;;;;4973457;28;20828;-79
2022/06/01 09:25:16;;;;;;;22.40;21.50;;;19.70;24.10;;;;;;4974463;28;20425;-80
2022/06/01 09:27:45;;;;;;;23.70;22.53;;;19.60;25.60;;;;;;4973293;28;20436;-79
2022/06/01 09:30:23;;;;;;;24.03;22.83;;;19.80;25.90;;;;;;4974528;28;20411;-78
2022/06/01 09:33:12;;;;;;;22.33;21.33;;;20.00;25.40;;;;;;4973336;28;20825;-79
2022/06/01 09:35:43;;;;;;;22.37;21.37;;;20.00;26.10;;;;;;4972979;28;20473;-79
2022/06/01 09:38:20;;;;;;;21.20;20.30;;;20.10;24.20;;;;;;4974456;28;20779;-80
2022/06/01 09:41:00;;;;;;;22.53;21.33;;;20.10;23.20;;;;;;4973182;28;20488;-79
2022/06/01 09:43:26;;;;;;;23.10;21.83;;;20.10;23.20;;;;;;4972839;28;20509;-80
2022/06/01 09:45:53;;;;;;;22.80;21.90;;;20.00;23.40;;;;;;4972829;28;20518;-79
2022/06/01 09:48:26;;;;;;;21.77;20.90;;;20.00;24.20;;;;;;4973079;28;20793;-79
2022/06/01 09:51:20;;;;;;;22.17;21.20;;;20.00;24.10;;;;;;4973051;28;20481;-80
2022/06/01 09:54:11;;;;;;;21.97;20.83;;;20.00;22.70;;;;;;4973084;28;20433;-79
2022/06/01 09:56:47;;;;;;;21.90;21.00;;;20.10;22.40;;;;;;4972768;28;20440;-80
2022/06/01 10:07:48;;;;;;;21.30;20.33;;;20.30;22.70;;;;;;4974648;28;20421;-80
2022/06/01 10:10:24;;;;;;;21.67;20.17;;;20.40;21.90;;;;;;4989167;28;20501;-79
2022/06/01 10:12:56;;;;;;;21.83;20.93;;;20.50;20.90;;;;;;4989107;28;20425;-80
2022/06/01 10:15:36;;;;;;;20.70;20.00;;;20.60;21.10;;;;;;4973695;28;20422;-80
2022/06/01 10:18:15;;;;;;;20.70;19.70;;;20.70;19.90;;;;;;4999392;28;20433;-79
2022/06/01 10:20:50;;;;;;;20.20;19.40;;;20.70;18.00;;;;;;4991799;28;20547;-79
2022/06/01 10:23:53;;;;;;;22.10;21.10;;;20.70;17.40;;;;;;4991620;28;20448;-80
2022/06/01 10:26:36;;;;;;;21.13;20.23;;;20.70;18.00;;;;;;4990919;28;20504;-80
2022/06/01 10:29:11;;;;;;;21.00;20.20;;;20.70;18.10;;;;;;4981134;28;20421;-80
2022/06/01 10:31:42;;;;;;;21.23;20.43;;;20.90;17.70;;;;;;4972640;28;20417;-80
2022/06/01 10:34:26;;;;;;;21.33;20.53;;;21.10;17.00;;;;;;4972783;28;20914;-80
2022/06/01 10:36:54;;;;;;;20.27;19.37;;;21.20;17.10;;;;;;4973014;28;20418;-80
2022/06/01 10:39:29;;;;;;;21.63;20.83;;;21.20;17.30;;;;;;4972963;28;20545;-80
2022/06/01 10:42:19;;;;;;;20.47;19.67;;;21.30;14.90;;;;;;4988493;28;20423;-80
2022/06/01 10:44:54;;;;;;;20.47;19.77;;;21.40;14.80;;;;;;4991268;28;20733;-80
2022/06/01 10:47:54;;;;;;;20.73;19.80;;;21.30;15.90;;;;;;4969412;28;20953;-80
2022/06/01 10:50:23;;;;;;;20.90;20.00;;;21.10;15.80;;;;;;4991417;28;20440;-79
2022/06/01 10:53:01;;;;;;;21.17;20.07;;;21.10;16.20;;;;;;4991431;28;21019;-80
2022/06/01 10:55:31;;;;;;;21.00;20.20;;;21.00;15.90;;;;;;4990916;28;20413;-79
2022/06/01 10:58:00;;;;;;;20.83;20.13;;;20.90;16.30;;;;;;4991238;28;20420;-79
2022/06/01 11:00:32;;;;;;;21.23;20.33;;;20.80;15.20;;;;;;4991019;28;20549;-80
2022/06/01 11:03:16;;;;;;;21.47;20.57;;;20.90;15.00;;;;;;4991268;28;20416;-79
2022/06/01 11:06:02;;;;;;;22.10;21.30;;;21.00;15.00;;;;;;4992143;28;20440;-80
2022/06/01 11:08:57;;;;;;;21.63;20.63;;;21.30;15.50;;;;;;4953857;28;20430;-79
2022/06/01 11:11:49;;;;;;;20.23;19.53;;;21.60;14.20;;;;;;4971770;28;20937;-80
2022/06/01 11:14:20;;;;;;;20.10;19.40;;;21.50;14.90;;;;;;4944398;28;20766;-80
2022/06/01 11:17:08;;;;;;;21.13;20.23;;;21.40;15.20;;;;;;4971368;28;20419;-80
2022/06/01 11:19:49;;;;;;;20.37;19.67;;;21.40;14.00;;;;;;4971632;28;20982;-81
2022/06/01 11:22:33;;;;;;;20.10;19.30;;;21.50;14.10;;;;;;4971581;28;20426;-79
2022/06/01 11:25:10;;;;;;;21.00;19.90;;;21.60;14.80;;;;;;4971498;28;20819;-80
2022/06/01 11:27:58;;;;;;;20.73;19.80;;;21.60;15.30;;;;;;4971990;28;20413;-79
2022/06/01 11:30:48;;;;;;;20.97;20.20;;;21.60;15.10;;;;;;4971462;28;20424;-79
2022/06/01 11:33:28;;;;;;;21.77;20.97;;;21.60;15.10;;;;;;4972679;28;20422;-79
2022/06/01 11:36:22;;;;;;;20.07;19.37;;;21.40;14.90;;;;;;4971136;28;20433;-78
2022/06/01 11:38:59;;;;;;;20.20;19.50;;;21.40;14.30;;;;;;4971627;28;20485;-80
2022/06/01 11:41:35;;;;;;;20.10;19.30;;;21.50;15.40;;;;;;4971506;28;20416;-80
2022/06/01 11:44:08;;;;;;;19.97;19.13;;;21.60;15.20;;;;;;4978517;28;20417;-80
2022/06/01 11:46:42;;;;;;;20.70;19.90;;;21.70;14.20;;;;;;4990657;28;20448;-80
2022/06/01 11:49:27;;;;;;;19.63;18.73;;;21.60;14.20;;;;;;4990904;28;20457;-80
2022/06/01 11:51:54;;;;;;;20.67;19.87;;;21.70;14.30;;;;;;4992062;28;20413;-80
2022/06/01 11:54:35;;;;;;;20.63;19.73;;;21.80;14.40;;;;;;4990795;28;20417;-80
2022/06/01 11:57:17;;;;;;;21.23;20.23;;;21.90;14.70;;;;;;4990209;28;20448;-80
2022/06/01 12:00:06;;;;;;;20.40;19.23;;;21.90;13.90;;;;;;4990605;28;20820;-80
2022/06/01 12:02:40;;;;;;;19.43;18.63;;;21.80;13.30;;;;;;4953415;29;20399;-80
2022/06/01 12:05:13;;;;;;;20.03;19.23;;;21.80;14.30;;;;;;4963656;28;20410;-79
2022/06/01 12:07:51;;;;;;;20.47;19.60;;;21.80;14.30;;;;;;4974494;28;20521;-80
2022/06/01 12:10:30;;;;;;;20.37;19.57;;;21.70;14.20;;;;;;4974791;28;20426;-80
2022/06/01 12:13:23;;;;;;;20.47;19.67;;;21.70;14.20;;;;;;4974705;28;20510;-79
2022/06/01 12:16:04;;;;;;;19.47;18.50;;;21.70;15.00;;;;;;4974644;28;20433;-79
2022/06/01 12:18:35;;;;;;;19.40;18.77;;;21.60;14.20;;;;;;4974781;28;20841;-79
2022/06/01 12:21:37;;;;;;;20.43;19.70;;;21.60;14.50;;;;;;4973290;28;20433;-78
2022/06/01 12:30:14;;;;;;;20.77;19.23;;;21.70;15.30;;;;;;4976100;28;20823;-78
2022/06/01 12:33:03;;;;;;;20.47;19.73;;;21.90;14.40;;;;;;4974522;28;20918;-80
2022/06/01 12:35:48;;;;;;;20.10;19.30;;;21.80;15.30;;;;;;4974121;28;20773;-79
2022/06/01 12:38:34;;;;;;;20.20;19.50;;;21.80;15.40;;;;;;4974657;28;20414;-79
2022/06/01 12:41:21;;;;;;;20.57;19.87;;;21.70;15.80;;;;;;4974643;28;20460;-79
2022/06/01 12:43:55;;;;;;;19.10;18.40;;;21.70;16.30;;;;;;4979769;28;20425;-79
2022/06/01 12:46:27;;;;;;;19.30;18.60;;;21.70;16.20;;;;;;5010175;28;20901;-80
2022/06/01 12:49:20;;;;;;;19.80;19.00;;;21.70;15.90;;;;;;5009430;28;20509;-80
2022/06/01 12:51:46;;;;;;;19.70;18.93;;;21.70;15.90;;;;;;4993887;28;20855;-80
2022/06/01 12:54:28;;;;;;;19.30;18.53;;;21.60;15.90;;;;;;5010193;28;20552;-82
2022/06/01 12:56:53;;;;;;;20.13;19.27;;;21.60;15.60;;;;;;4993581;28;20193;-81
2022/06/01 12:59:19;;;;;;;19.40;18.70;;;21.70;16.30;;;;;;5009898;28;20851;-81
2022/06/01 13:01:50;;;;;;;19.80;19.00;;;21.90;16.30;;;;;;5010241;28;20639;-81
2022/06/01 13:04:22;;;;;;;19.70;19.00;;;21.90;15.80;;;;;;4995015;28;20496;-80
2022/06/01 13:06:49;;;;;;;19.70;19.00;;;21.80;16.10;;;;;;5010464;28;20414;-81
2022/06/01 13:09:20;;;;;;;20.43;19.43;;;21.90;16.00;;;;;;5010152;28;20413;-80
2022/06/01 13:11:56;;;;;;;20.67;19.77;;;21.90;16.30;;;;;;5010037;28;20508;-80
2022/06/01 13:14:25;;;;;;;20.90;19.90;;;22.00;16.70;;;;;;5009675;28;20424;-81
2022/06/01 13:16:51;;;;;;;21.47;20.30;;;22.40;17.10;;;;;;5008817;28;20432;-80
2022/06/01 13:19:27;;;;;;;20.40;19.60;;;22.40;16.40;;;;;;5009422;28;20882;-81
2022/06/01 13:21:56;;;;;;;20.37;19.47;;;22.20;17.70;;;;;;5009517;28;20420;-80
2022/06/01 13:24:24;;;;;;;20.50;19.70;;;22.20;17.60;;;;;;4993392;28;20428;-80